createdAt,value
2018-11-01T00:02:10.042Z,5.50
2018-11-01T00:04:38.566Z,5.30
2018-11-01T00:07:07.039Z,5.10
2018-11-01T00:09:35.577Z,5.30
2018-11-01T00:12:04.102Z,5.40
2018-11-01T00:14:32.625Z,5.20
2018-11-01T00:17:01.141Z,5.20
2018-11-01T00:19:29.656Z,5.20
2018-11-01T00:21:58.157Z,5.20
2018-11-01T00:24:26.718Z,5.20
2018-11-01T00:26:55.225Z,5.20
2018-11-01T00:29:23.736Z,5.20
2018-11-01T00:31:52.309Z,5.20
2018-11-01T00:34:20.817Z,5.00
2018-11-01T00:36:49.357Z,5.10
2018-11-01T00:39:17.858Z,5.10
2018-11-01T00:41:46.417Z,5.10
2018-11-01T00:44:14.914Z,5.10
2018-11-01T00:46:43.467Z,5.20
2018-11-01T00:49:11.981Z,5.10
2018-11-01T00:51:40.530Z,5.00
2018-11-01T00:54:09.042Z,5.00
2018-11-01T00:56:37.573Z,5.10
2018-11-01T00:59:06.076Z,5.10
2018-11-01T01:01:34.622Z,5.20
2018-11-01T01:04:03.132Z,5.20
2018-11-01T01:06:31.681Z,5.30
2018-11-01T01:09:00.193Z,5.30
2018-11-01T01:11:28.709Z,5.30
2018-11-01T01:13:57.213Z,5.40
2018-11-01T01:16:25.757Z,5.30
2018-11-01T01:18:54.308Z,5.40
2018-11-01T01:21:22.801Z,5.30
2018-11-01T01:23:51.305Z,5.30
2018-11-01T01:26:19.833Z,5.40
2018-11-01T01:28:48.334Z,5.40
2018-11-01T01:31:16.861Z,5.40
2018-11-01T01:33:45.342Z,5.40
2018-11-01T01:36:13.850Z,5.50
2018-11-01T01:38:42.348Z,5.40
2018-11-01T01:41:10.876Z,5.40
2018-11-01T01:43:39.381Z,5.50
2018-11-01T01:46:07.904Z,5.50
2018-11-01T01:48:36.385Z,5.40
2018-11-01T01:51:05.127Z,5.40
2018-11-01T01:53:33.607Z,5.40
2018-11-01T01:56:02.157Z,5.50
2018-11-01T01:58:30.649Z,5.60
2018-11-01T02:00:59.174Z,5.50
2018-11-01T02:03:27.656Z,5.60
2018-11-01T02:05:56.135Z,5.60
2018-11-01T02:08:24.670Z,5.70
2018-11-01T02:10:53.153Z,5.70
2018-11-01T02:13:21.666Z,5.70
2018-11-01T02:15:50.153Z,5.70
2018-11-01T02:18:18.672Z,5.80
2018-11-01T02:20:47.170Z,5.50
2018-11-01T02:23:15.717Z,5.60
2018-11-01T02:25:44.215Z,5.60
2018-11-01T02:28:18.021Z,5.40
2018-11-01T02:30:46.792Z,5.30
2018-11-01T02:33:15.351Z,5.30
2018-11-01T02:35:43.858Z,5.40
2018-11-01T02:38:12.536Z,5.30
2018-11-01T02:40:40.937Z,5.40
2018-11-01T02:43:09.602Z,5.30
2018-11-01T02:45:38.107Z,5.30
2018-11-01T02:48:07.370Z,5.30
2018-11-01T02:50:35.899Z,5.40
2018-11-01T02:53:04.421Z,5.40
2018-11-01T02:55:32.917Z,5.20
2018-11-01T02:58:01.449Z,5.30
2018-11-01T03:00:29.950Z,5.30
2018-11-01T03:02:58.481Z,5.30
2018-11-01T03:05:26.977Z,5.20
2018-11-01T03:07:55.538Z,5.20
2018-11-01T03:10:24.033Z,5.20
2018-11-01T03:12:52.561Z,5.20
2018-11-01T03:15:21.059Z,5.10
2018-11-01T03:17:49.606Z,5.00
2018-11-01T03:20:18.107Z,5.10
2018-11-01T03:22:46.646Z,5.10
2018-11-01T03:25:15.169Z,5.00
2018-11-01T03:27:43.768Z,4.80
2018-11-01T03:30:12.305Z,4.70
2018-11-01T03:32:40.861Z,4.70
2018-11-01T03:35:10.759Z,4.70
2018-11-01T03:37:39.385Z,4.60
2018-11-01T03:40:09.022Z,4.60
2018-11-01T03:42:38.089Z,4.60
2018-11-01T03:45:07.737Z,4.60
2018-11-01T03:47:36.272Z,4.70
2018-11-01T03:50:04.877Z,4.70
2018-11-01T03:52:33.421Z,4.70
2018-11-01T03:55:01.976Z,4.50
2018-11-01T03:57:30.673Z,4.40
2018-11-01T03:59:59.211Z,4.50
2018-11-01T04:02:27.736Z,4.50
2018-11-01T04:04:56.278Z,4.60
2018-11-01T04:07:24.796Z,4.40
2018-11-01T04:09:53.324Z,4.40
2018-11-01T04:12:21.838Z,4.60
2018-11-01T04:14:50.374Z,4.50
2018-11-01T04:17:18.898Z,4.60
2018-11-01T04:19:47.451Z,4.70
2018-11-01T04:22:15.965Z,4.70
2018-11-01T04:24:44.513Z,4.70
2018-11-01T04:27:13.036Z,4.60
2018-11-01T04:29:41.587Z,4.60
2018-11-01T04:32:10.145Z,4.60
2018-11-01T04:34:38.700Z,4.40
2018-11-01T04:37:07.218Z,4.50
2018-11-01T04:39:35.764Z,4.40
2018-11-01T04:42:04.296Z,4.40
2018-11-01T04:44:32.838Z,4.40
2018-11-01T04:47:01.377Z,4.40
2018-11-01T04:49:29.937Z,4.40
2018-11-01T04:51:58.441Z,4.40
2018-11-01T04:54:26.989Z,4.50
2018-11-01T04:56:55.524Z,4.60
2018-11-01T04:59:24.021Z,4.60
2018-11-01T05:01:52.569Z,4.70
2018-11-01T05:04:21.066Z,4.60
2018-11-01T05:06:49.614Z,4.40
2018-11-01T05:09:18.109Z,4.20
2018-11-01T05:11:46.649Z,4.20
2018-11-01T05:14:15.149Z,4.30
2018-11-01T05:16:43.674Z,4.30
2018-11-01T05:19:12.173Z,4.40
2018-11-01T05:21:40.709Z,4.50
2018-11-01T05:24:09.210Z,4.60
2018-11-01T05:26:37.761Z,4.70
2018-11-01T05:29:06.329Z,4.70
2018-11-01T05:31:34.905Z,4.80
2018-11-01T05:34:03.448Z,4.80
2018-11-01T05:36:31.978Z,4.80
2018-11-01T05:39:00.483Z,4.80
2018-11-01T05:41:29.013Z,4.80
2018-11-01T05:43:57.593Z,4.70
2018-11-01T05:46:26.141Z,4.70
2018-11-01T05:48:54.650Z,4.80
2018-11-01T05:51:23.194Z,4.90
2018-11-01T05:53:51.761Z,4.90
2018-11-01T05:56:20.313Z,4.80
2018-11-01T05:58:48.830Z,4.80
2018-11-01T06:01:22.565Z,4.80
2018-11-01T06:03:51.081Z,4.80
2018-11-01T06:06:19.620Z,4.80
2018-11-01T06:08:48.493Z,4.90
2018-11-01T06:11:17.148Z,4.90
2018-11-01T06:13:45.674Z,4.90
2018-11-01T06:16:14.221Z,4.90
2018-11-01T06:18:42.771Z,5.00
2018-11-01T06:21:11.320Z,5.00
2018-11-01T06:23:39.834Z,5.00
2018-11-01T06:26:08.353Z,5.10
2018-11-01T06:28:36.910Z,5.00
2018-11-01T06:31:05.657Z,5.00
2018-11-01T06:33:34.215Z,4.90
2018-11-01T06:36:06.028Z,4.90
2018-11-01T06:38:34.557Z,4.90
2018-11-01T06:41:03.080Z,5.00
2018-11-01T06:43:31.628Z,5.00
2018-11-01T06:46:00.137Z,5.00
2018-11-01T06:48:28.686Z,5.00
2018-11-01T06:50:57.209Z,5.10
2018-11-01T06:53:25.772Z,5.10
2018-11-01T06:55:54.290Z,5.10
2018-11-01T06:58:22.918Z,5.10
2018-11-01T07:00:51.408Z,5.10
2018-11-01T07:03:19.953Z,5.10
2018-11-01T07:05:48.527Z,5.20
2018-11-01T07:08:20.449Z,5.30
2018-11-01T07:10:48.975Z,5.30
2018-11-01T07:13:17.518Z,5.30
2018-11-01T07:15:46.050Z,5.40
2018-11-01T07:18:14.586Z,5.40
2018-11-01T07:20:43.115Z,5.50
2018-11-01T07:23:11.653Z,5.40
2018-11-01T07:25:40.177Z,5.50
2018-11-01T07:28:08.772Z,5.60
2018-11-01T07:30:37.289Z,5.70
2018-11-01T07:33:06.314Z,5.70
2018-11-01T07:35:34.849Z,5.60
2018-11-01T07:38:03.411Z,5.50
2018-11-01T07:40:31.933Z,5.40
2018-11-01T07:43:01.101Z,5.40
2018-11-01T07:45:29.613Z,5.10
2018-11-01T07:47:58.153Z,5.10
2018-11-01T07:50:26.690Z,5.20
2018-11-01T07:52:55.264Z,5.40
2018-11-01T07:55:23.778Z,5.50
2018-11-01T07:57:52.353Z,5.60
2018-11-01T08:00:20.861Z,5.70
2018-11-01T08:02:49.409Z,5.70
2018-11-01T08:05:17.991Z,5.80
2018-11-01T08:07:46.541Z,5.90
2018-11-01T08:10:16.391Z,5.90
2018-11-01T08:12:45.720Z,6.00
2018-11-01T08:15:17.581Z,6.00
2018-11-01T08:17:46.132Z,6.00
2018-11-01T08:20:15.834Z,6.10
2018-11-01T08:22:44.321Z,6.10
2018-11-01T08:25:13.462Z,6.10
2018-11-01T08:27:42.796Z,6.20
2018-11-01T08:30:13.639Z,6.30
2018-11-01T08:32:42.198Z,6.30
2018-11-01T08:35:11.584Z,6.30
2018-11-01T08:37:40.889Z,6.30
2018-11-01T08:40:10.794Z,6.30
2018-11-01T08:42:39.875Z,6.20
2018-11-01T08:45:10.534Z,6.20
2018-11-01T08:47:39.407Z,6.30
2018-11-01T08:50:09.782Z,6.20
2018-11-01T08:52:39.231Z,6.30
2018-11-01T08:55:08.466Z,6.40
2018-11-01T08:57:37.029Z,6.40
2018-11-01T09:00:06.249Z,6.50
2018-11-01T09:02:34.784Z,6.60
2018-11-01T09:05:03.333Z,6.80
2018-11-01T09:07:31.890Z,6.90
2018-11-01T09:10:00.510Z,7.00
2018-11-01T09:12:29.021Z,6.90
2018-11-01T09:14:57.581Z,6.90
2018-11-01T09:17:26.129Z,6.90
2018-11-01T09:19:54.737Z,6.90
2018-11-01T09:22:23.250Z,6.80
2018-11-01T09:24:51.787Z,6.80
2018-11-01T09:27:20.378Z,6.70
2018-11-01T09:29:48.845Z,6.80
2018-11-01T09:32:17.374Z,6.80
2018-11-01T09:34:45.892Z,6.80
2018-11-01T09:37:14.401Z,6.90
2018-11-01T09:39:42.934Z,7.00
2018-11-01T09:42:11.433Z,7.30
2018-11-01T09:44:39.970Z,7.50
2018-11-01T09:47:08.743Z,7.60
2018-11-01T09:49:37.068Z,7.70
2018-11-01T09:52:05.670Z,7.80
2018-11-01T09:54:34.438Z,7.80
2018-11-01T09:57:02.961Z,7.90
2018-11-01T09:59:32.416Z,7.90
2018-11-01T10:02:01.018Z,8.10
2018-11-01T10:04:29.545Z,8.20
2018-11-01T10:06:58.232Z,8.20
2018-11-01T10:09:26.646Z,8.30
2018-11-01T10:11:55.175Z,8.30
2018-11-01T10:14:24.250Z,8.40
2018-11-01T10:16:53.910Z,8.40
2018-11-01T10:19:22.187Z,8.50
2018-11-01T10:21:50.747Z,8.60
2018-11-01T10:24:19.282Z,8.60
2018-11-01T10:26:47.821Z,8.70
2018-11-01T10:29:16.342Z,8.70
2018-11-01T10:31:44.913Z,8.80
2018-11-01T10:34:13.452Z,8.90
2018-11-01T10:36:41.997Z,8.80
2018-11-01T10:39:11.129Z,8.80
2018-11-01T10:41:39.786Z,8.90
2018-11-01T10:44:08.282Z,8.90
2018-11-01T10:46:36.800Z,8.80
2018-11-01T10:49:05.974Z,8.80
2018-11-01T10:51:34.681Z,8.70
2018-11-01T10:54:03.246Z,8.80
2018-11-01T10:56:31.825Z,8.80
2018-11-01T10:59:00.346Z,8.70
2018-11-01T11:01:33.793Z,8.90
2018-11-01T11:04:02.456Z,9.00
2018-11-01T11:06:31.188Z,9.10
2018-11-01T11:08:59.722Z,9.10
2018-11-01T11:11:28.353Z,9.10
2018-11-01T11:13:57.013Z,9.10
2018-11-01T11:16:25.668Z,9.00
2018-11-01T11:18:54.607Z,9.10
2018-11-01T11:21:23.553Z,9.10
2018-11-01T11:23:53.190Z,9.20
2018-11-01T11:26:22.023Z,9.20
2018-11-01T11:28:50.694Z,9.20
2018-11-01T11:31:19.932Z,9.10
2018-11-01T11:33:49.043Z,9.30
2018-11-01T11:36:18.287Z,9.10
2018-11-01T11:38:47.009Z,9.10
2018-11-01T11:41:15.635Z,9.10
2018-11-01T11:43:44.564Z,9.10
2018-11-01T11:46:13.385Z,9.10
2018-11-01T11:48:42.470Z,9.00
2018-11-01T11:51:11.750Z,8.90
2018-11-01T11:53:40.715Z,8.80
2018-11-01T11:56:09.556Z,8.70
2018-11-01T11:58:38.149Z,8.70
2018-11-01T12:01:07.437Z,8.90
2018-11-01T12:03:36.231Z,9.00
2018-11-01T12:06:05.408Z,9.00
2018-11-01T12:08:34.021Z,9.00
2018-11-01T12:11:02.606Z,9.10
2018-11-01T12:13:31.149Z,9.20
2018-11-01T12:15:59.680Z,9.20
2018-11-01T12:18:28.216Z,9.30
2018-11-01T12:20:56.732Z,9.40
2018-11-01T12:23:25.257Z,9.40
2018-11-01T12:25:53.770Z,9.50
2018-11-01T12:28:22.474Z,9.50
2018-11-01T12:30:50.901Z,9.40
2018-11-01T12:33:19.453Z,9.50
2018-11-01T12:35:48.889Z,9.50
2018-11-01T12:38:17.409Z,9.60
2018-11-01T12:40:45.904Z,9.60
2018-11-01T12:43:14.425Z,9.60
2018-11-01T12:45:42.934Z,9.50
2018-11-01T12:48:11.462Z,9.60
2018-11-01T12:50:39.965Z,9.50
2018-11-01T12:53:08.482Z,9.60
2018-11-01T12:55:36.980Z,9.70
2018-11-01T12:58:05.910Z,9.80
2018-11-01T13:00:34.422Z,10.00
2018-11-01T13:03:02.962Z,10.10
2018-11-01T13:05:31.529Z,10.30
2018-11-01T13:08:00.074Z,10.20
2018-11-01T13:10:28.666Z,10.10
2018-11-01T13:12:57.170Z,10.10
2018-11-01T13:15:25.714Z,10.20
2018-11-01T13:17:54.275Z,10.20
2018-11-01T13:20:22.794Z,10.20
2018-11-01T13:22:51.302Z,10.40
2018-11-01T13:25:19.858Z,10.40
2018-11-01T13:27:48.384Z,10.50
2018-11-01T13:30:16.909Z,10.60
2018-11-01T13:32:46.080Z,10.70
2018-11-01T13:35:15.033Z,10.60
2018-11-01T13:37:44.210Z,10.40
2018-11-01T13:40:13.037Z,10.40
2018-11-01T13:42:41.951Z,10.40
2018-11-01T13:45:10.981Z,10.30
2018-11-01T13:47:39.592Z,10.20
2018-11-01T13:50:09.573Z,10.20
2018-11-01T13:52:38.108Z,10.20
2018-11-01T13:55:08.078Z,10.10
2018-11-01T13:57:36.615Z,10.00
2018-11-01T14:00:05.459Z,10.10
2018-11-01T14:02:40.247Z,10.20
2018-11-01T14:05:11.145Z,10.20
2018-11-01T14:07:40.282Z,10.20
2018-11-01T14:10:10.438Z,10.20
2018-11-01T14:12:39.202Z,10.20
2018-11-01T14:15:09.201Z,10.20
2018-11-01T14:17:37.702Z,10.30
2018-11-01T14:20:07.877Z,10.40
2018-11-01T14:22:36.438Z,10.50
2018-11-01T14:25:05.575Z,10.50
2018-11-01T14:27:34.093Z,10.60
2018-11-01T14:30:02.649Z,10.60
2018-11-01T14:32:31.360Z,10.50
2018-11-01T14:34:59.884Z,10.40
2018-11-01T14:37:28.428Z,10.40
2018-11-01T14:39:56.949Z,10.50
2018-11-01T14:42:25.473Z,10.60
2018-11-01T14:44:53.994Z,10.50
2018-11-01T14:47:22.506Z,10.50
2018-11-01T14:49:51.046Z,10.50
2018-11-01T14:52:20.043Z,10.40
2018-11-01T14:54:49.588Z,10.40
2018-11-01T14:57:18.147Z,10.50
2018-11-01T14:59:47.021Z,10.30
2018-11-01T15:02:13.824Z,10.30
2018-11-01T15:04:42.342Z,10.20
2018-11-01T15:07:10.870Z,10.20
2018-11-01T15:09:39.376Z,10.20
2018-11-01T15:12:07.945Z,10.10
2018-11-01T15:14:36.450Z,10.10
2018-11-01T15:17:05.801Z,10.10
2018-11-01T15:19:34.310Z,10.00
2018-11-01T15:22:02.916Z,10.00
2018-11-01T15:24:31.415Z,9.90
2018-11-01T15:27:01.283Z,9.80
2018-11-01T15:29:29.823Z,9.90
2018-11-01T15:32:02.123Z,9.80
2018-11-01T15:34:31.605Z,9.70
2018-11-01T15:37:00.313Z,9.60
2018-11-01T15:39:29.406Z,9.50
2018-11-01T15:41:57.978Z,9.60
2018-11-01T15:44:26.514Z,9.70
2018-11-01T15:46:55.152Z,9.60
2018-11-01T15:49:23.652Z,9.50
2018-11-01T15:51:52.237Z,9.40
2018-11-01T15:54:20.727Z,9.30
2018-11-01T15:56:49.282Z,9.10
2018-11-01T15:59:17.815Z,9.20
2018-11-01T16:01:46.353Z,9.10
2018-11-01T16:04:15.090Z,9.00
2018-11-01T16:06:43.649Z,8.90
2018-11-01T16:09:13.337Z,8.80
2018-11-01T16:11:42.128Z,8.70
2018-11-01T16:14:11.101Z,8.80
2018-11-01T16:16:40.234Z,8.70
2018-11-01T16:19:09.498Z,8.60
2018-11-01T16:21:38.048Z,8.50
2018-11-01T16:24:06.838Z,8.50
2018-11-01T16:26:35.418Z,8.40
2018-11-01T16:29:03.954Z,8.40
2018-11-01T16:31:32.549Z,8.40
2018-11-01T16:34:01.093Z,8.40
2018-11-01T16:36:29.732Z,8.30
2018-11-01T16:38:58.265Z,8.20
2018-11-01T16:41:26.829Z,8.20
2018-11-01T16:43:55.348Z,8.20
2018-11-01T16:46:23.913Z,8.20
2018-11-01T16:48:52.482Z,8.20
2018-11-01T16:51:21.046Z,8.10
2018-11-01T16:53:49.573Z,7.90
2018-11-01T16:56:18.155Z,8.00
2018-11-01T16:58:46.683Z,8.00
2018-11-01T17:01:15.247Z,8.00
2018-11-01T17:03:44.074Z,8.00
2018-11-01T17:06:12.634Z,7.90
2018-11-01T17:08:41.282Z,7.80
2018-11-01T17:11:09.769Z,7.80
2018-11-01T17:13:38.825Z,7.80
2018-11-01T17:16:07.883Z,7.80
2018-11-01T17:18:36.433Z,7.80
2018-11-01T17:21:05.038Z,7.70
2018-11-01T17:23:33.633Z,7.70
2018-11-01T17:26:02.145Z,7.70
2018-11-01T17:28:30.757Z,7.60
2018-11-01T17:30:59.495Z,7.50
2018-11-01T17:33:28.074Z,7.50
2018-11-01T17:35:56.577Z,7.50
2018-11-01T17:38:25.168Z,7.50
2018-11-01T17:40:53.692Z,7.40
2018-11-01T17:43:22.343Z,7.40
2018-11-01T17:45:50.894Z,7.40
2018-11-01T17:48:19.404Z,7.40
2018-11-01T17:50:47.917Z,7.40
2018-11-01T17:53:16.483Z,7.40
2018-11-01T17:55:44.989Z,7.40
2018-11-01T17:58:13.526Z,7.40
2018-11-01T18:00:42.047Z,7.40
2018-11-01T18:03:10.877Z,7.40
2018-11-01T18:05:39.396Z,7.30
2018-11-01T18:08:07.954Z,7.30
2018-11-01T18:10:37.157Z,7.30
2018-11-01T18:13:05.772Z,7.20
2018-11-01T18:15:34.281Z,7.20
2018-11-01T18:18:02.987Z,7.20
2018-11-01T18:20:31.697Z,7.30
2018-11-01T18:23:00.430Z,7.40
2018-11-01T18:25:29.233Z,7.30
2018-11-01T18:27:57.805Z,7.40
2018-11-01T18:30:26.534Z,7.30
2018-11-01T18:32:56.275Z,7.40
2018-11-01T18:35:24.624Z,7.40
2018-11-01T18:37:53.197Z,7.50
2018-11-01T18:40:21.714Z,7.50
2018-11-01T18:42:50.390Z,7.50
2018-11-01T18:45:18.945Z,7.60
2018-11-01T18:47:47.461Z,7.70
2018-11-01T18:50:17.424Z,7.60
2018-11-01T18:52:46.470Z,7.60
2018-11-01T18:55:15.026Z,7.60
2018-11-01T18:57:43.557Z,7.60
2018-11-01T19:00:14.185Z,7.50
2018-11-01T19:02:42.683Z,7.50
2018-11-01T19:05:11.877Z,7.50
2018-11-01T19:07:40.938Z,7.50
2018-11-01T19:10:10.370Z,7.50
2018-11-01T19:12:38.929Z,7.50
2018-11-01T19:15:08.958Z,7.40
2018-11-01T19:17:38.345Z,7.40
2018-11-01T19:20:08.002Z,7.40
2018-11-01T19:22:37.061Z,7.40
2018-11-01T19:25:05.903Z,7.50
2018-11-01T19:27:34.801Z,7.60
2018-11-01T19:30:03.866Z,7.60
2018-11-01T19:32:32.769Z,7.70
2018-11-01T19:35:01.368Z,7.80
2018-11-01T19:37:30.401Z,7.80
2018-11-01T19:39:59.148Z,7.80
2018-11-01T19:42:27.653Z,7.80
2018-11-01T19:44:56.245Z,7.70
2018-11-01T19:47:24.767Z,7.80
2018-11-01T19:49:53.297Z,7.90
2018-11-01T19:52:22.841Z,7.90
2018-11-01T19:54:51.569Z,7.90
2018-11-01T19:57:20.082Z,8.00
2018-11-01T19:59:48.720Z,7.90
2018-11-01T20:02:18.189Z,8.00
2018-11-01T20:04:46.997Z,8.10
2018-11-01T20:07:15.705Z,8.10
2018-11-01T20:09:44.333Z,8.10
2018-11-01T20:12:12.932Z,8.10
2018-11-01T20:14:41.677Z,8.20
2018-11-01T20:17:10.250Z,8.20
2018-11-01T20:19:39.022Z,8.20
2018-11-01T20:22:08.032Z,8.30
2018-11-01T20:24:37.042Z,8.40
2018-11-01T20:27:06.973Z,8.30
2018-11-01T20:29:35.635Z,8.40
2018-11-01T20:32:04.281Z,8.50
2018-11-01T20:34:32.801Z,8.60
2018-11-01T20:37:01.366Z,8.80
2018-11-01T20:39:29.901Z,8.90
2018-11-01T20:41:58.540Z,8.90
2018-11-01T20:44:27.254Z,9.00
2018-11-01T20:46:55.933Z,9.20
2018-11-01T20:49:24.651Z,9.40
2018-11-01T20:51:53.445Z,9.50
2018-11-01T20:54:22.011Z,9.60
2018-11-01T20:56:50.574Z,9.70
2018-11-01T20:59:19.117Z,9.80
2018-11-01T21:01:47.668Z,9.80
2018-11-01T21:04:16.211Z,10.10
2018-11-01T21:06:44.772Z,10.00
2018-11-01T21:09:13.337Z,10.00
2018-11-01T21:11:42.584Z,10.00
2018-11-01T21:14:10.882Z,10.00
2018-11-01T21:16:39.626Z,10.00
2018-11-01T21:19:08.297Z,10.10
2018-11-01T21:21:37.227Z,10.10
2018-11-01T21:24:06.109Z,10.20
2018-11-01T21:26:35.109Z,10.20
2018-11-01T21:29:03.847Z,10.10
2018-11-01T21:31:32.433Z,10.20
2018-11-01T21:34:01.173Z,10.20
2018-11-01T21:36:29.842Z,10.20
2018-11-01T21:38:58.381Z,10.20
2018-11-01T21:41:27.593Z,10.10
2018-11-01T21:43:56.117Z,10.20
2018-11-01T21:46:25.893Z,10.30
2018-11-01T21:48:54.413Z,10.20
2018-11-01T21:51:22.985Z,10.40
2018-11-01T21:53:51.520Z,10.40
2018-11-01T21:56:20.050Z,10.40
2018-11-01T21:58:48.593Z,10.20
2018-11-01T22:01:17.130Z,10.20
2018-11-01T22:03:45.686Z,10.20
2018-11-01T22:06:14.215Z,10.20
2018-11-01T22:08:42.770Z,10.20
2018-11-01T22:11:11.313Z,10.10
2018-11-01T22:13:40.045Z,10.10
2018-11-01T22:16:08.934Z,10.00
2018-11-01T22:18:37.504Z,10.10
2018-11-01T22:21:06.065Z,10.00
2018-11-01T22:23:34.629Z,9.90
2018-11-01T22:26:03.184Z,9.70
2018-11-01T22:28:31.788Z,9.70
2018-11-01T22:31:00.265Z,9.70
2018-11-01T22:33:28.844Z,9.60
2018-11-01T22:35:57.383Z,9.50
2018-11-01T22:38:25.970Z,9.40
2018-11-01T22:40:54.438Z,9.40
2018-11-01T22:43:22.989Z,9.40
2018-11-01T22:45:51.533Z,9.50
2018-11-01T22:48:20.072Z,9.60
2018-11-01T22:50:48.593Z,9.60
2018-11-01T22:53:17.153Z,9.80
2018-11-01T22:55:45.673Z,9.80
2018-11-01T22:58:14.266Z,9.80
2018-11-01T23:00:43.840Z,9.90
2018-11-01T23:03:12.667Z,9.90
2018-11-01T23:05:41.206Z,9.90
2018-11-01T23:08:10.034Z,9.90
2018-11-01T23:10:38.566Z,9.90
2018-11-01T23:13:07.125Z,10.00
2018-11-01T23:15:35.653Z,10.00
2018-11-01T23:18:04.233Z,10.10
2018-11-01T23:20:32.755Z,10.10
2018-11-01T23:23:01.324Z,10.10
2018-11-01T23:25:29.852Z,10.00
2018-11-01T23:27:58.401Z,10.10
2018-11-01T23:30:26.969Z,10.00
2018-11-01T23:32:55.506Z,10.10
2018-11-01T23:35:24.073Z,10.20
2018-11-01T23:37:57.954Z,10.20
2018-11-01T23:40:31.989Z,10.10
2018-11-01T23:43:05.882Z,10.20
2018-11-01T23:45:39.806Z,10.20
2018-11-01T23:48:07.525Z,10.30
2018-11-01T23:50:41.314Z,10.30
2018-11-01T23:53:21.160Z,10.30
2018-11-01T23:55:50.125Z,10.20
2018-11-01T23:58:18.652Z,10.20
